createdAt,value
2023-03-31T00:01:47.276Z,5.95
2023-03-31T00:04:14.834Z,6.18
2023-03-31T00:06:42.755Z,6.22
2023-03-31T00:09:13.049Z,6.20
2023-03-31T00:11:40.645Z,5.88
2023-03-31T00:14:09.430Z,6.45
2023-03-31T00:16:37.486Z,6.30
2023-03-31T00:19:05.862Z,6.28
2023-03-31T00:21:36.958Z,5.37
2023-03-31T00:24:06.361Z,5.00
2023-03-31T00:26:34.462Z,5.10
2023-03-31T00:29:02.047Z,5.25
2023-03-31T00:31:30.853Z,5.03
2023-03-31T00:36:29.249Z,4.50
2023-03-31T00:39:02.430Z,4.82
2023-03-31T00:41:30.284Z,4.70
2023-03-31T00:44:08.337Z,4.70
2023-03-31T00:46:42.300Z,4.05
2023-03-31T00:49:20.901Z,4.68
2023-03-31T00:51:51.012Z,3.78
2023-03-31T00:54:19.660Z,4.00
2023-03-31T00:56:48.677Z,4.10
2023-03-31T00:59:16.544Z,3.50
2023-03-31T01:01:48.335Z,3.45
2023-03-31T01:04:16.790Z,3.55
2023-03-31T01:06:57.395Z,3.37
2023-03-31T01:09:25.418Z,3.20
2023-03-31T01:11:52.493Z,3.70
2023-03-31T01:14:19.810Z,3.28
2023-03-31T01:16:48.148Z,3.33
2023-03-31T01:19:26.107Z,3.28
2023-03-31T01:22:31.969Z,2.42
2023-03-31T01:25:32.662Z,2.38
2023-03-31T01:28:15.799Z,2.38
2023-03-31T01:31:18.496Z,2.50
2023-03-31T01:34:36.012Z,2.70
2023-03-31T01:37:26.533Z,2.30
2023-03-31T01:40:19.934Z,2.78
2023-03-31T01:42:53.275Z,2.25
2023-03-31T01:45:33.756Z,2.08
2023-03-31T01:48:08.341Z,2.20
2023-03-31T01:50:38.406Z,2.30
2023-03-31T01:53:15.115Z,2.17
2023-03-31T01:55:50.737Z,2.22
2023-03-31T01:58:21.796Z,2.45
2023-03-31T02:00:57.618Z,2.22
2023-03-31T02:03:30.336Z,2.17
2023-03-31T02:06:01.011Z,2.63
2023-03-31T02:08:32.725Z,2.40
2023-03-31T02:11:01.569Z,2.20
2023-03-31T02:13:30.137Z,2.55
2023-03-31T02:16:03.581Z,2.50
2023-03-31T02:18:38.328Z,2.85
2023-03-31T02:21:08.828Z,2.42
2023-03-31T02:23:38.131Z,2.50
2023-03-31T02:26:12.126Z,2.90
2023-03-31T02:28:39.784Z,2.42
2023-03-31T02:31:20.411Z,3.00
2023-03-31T02:33:48.252Z,2.30
2023-03-31T02:36:16.198Z,2.40
2023-03-31T02:38:47.798Z,2.28
2023-03-31T02:41:16.485Z,2.72
2023-03-31T02:46:10.546Z,2.13
2023-03-31T02:48:41.736Z,2.33
2023-03-31T02:51:42.296Z,2.45
2023-03-31T02:54:31.856Z,3.00
2023-03-31T02:57:27.166Z,2.53
2023-03-31T03:00:08.211Z,2.55
2023-03-31T03:02:49.284Z,2.33
2023-03-31T03:05:28.532Z,2.67
2023-03-31T03:10:35.714Z,2.72
2023-03-31T03:13:12.322Z,2.42
2023-03-31T03:15:46.236Z,2.70
2023-03-31T03:18:14.241Z,2.90
2023-03-31T03:20:43.408Z,2.60
2023-03-31T03:23:10.418Z,3.33
2023-03-31T03:25:37.840Z,2.45
2023-03-31T03:28:07.202Z,2.47
2023-03-31T03:30:34.594Z,2.40
2023-03-31T03:33:02.041Z,3.03
2023-03-31T03:35:29.430Z,3.20
2023-03-31T03:37:56.410Z,3.05
2023-03-31T03:40:24.030Z,2.58
2023-03-31T03:42:51.071Z,2.88
2023-03-31T03:45:20.118Z,3.17
2023-03-31T03:47:47.115Z,2.95
2023-03-31T03:50:16.186Z,3.00
2023-03-31T03:52:44.301Z,3.17
2023-03-31T03:55:12.267Z,2.70
2023-03-31T03:57:39.486Z,2.92
2023-03-31T04:00:12.378Z,2.80
2023-03-31T04:02:41.158Z,2.70
2023-03-31T04:05:09.746Z,2.88
2023-03-31T04:07:36.729Z,2.80
2023-03-31T04:10:04.180Z,2.85
2023-03-31T04:12:33.854Z,2.90
2023-03-31T04:15:01.301Z,2.92
2023-03-31T04:17:34.759Z,2.70
2023-03-31T04:20:07.568Z,2.85
2023-03-31T04:22:41.054Z,3.38
2023-03-31T04:25:15.042Z,3.22
2023-03-31T04:27:54.896Z,3.05
2023-03-31T04:30:23.308Z,3.40
2023-03-31T04:32:51.477Z,3.50
2023-03-31T04:35:20.873Z,3.38
2023-03-31T04:37:48.527Z,3.92
2023-03-31T04:40:16.566Z,3.55
2023-03-31T04:42:43.948Z,3.30
2023-03-31T04:45:12.254Z,3.28
2023-03-31T04:47:39.511Z,3.22
2023-03-31T04:50:08.647Z,3.85
2023-03-31T04:52:38.837Z,3.97
2023-03-31T04:55:07.384Z,3.20
2023-03-31T04:57:34.311Z,4.05
2023-03-31T05:00:01.698Z,4.57
2023-03-31T05:02:28.778Z,4.22
2023-03-31T05:04:56.406Z,4.10
2023-03-31T05:07:23.578Z,3.70
2023-03-31T05:09:52.205Z,3.42
2023-03-31T05:12:20.735Z,3.28
2023-03-31T05:14:48.073Z,3.70
2023-03-31T05:17:17.979Z,2.70
2023-03-31T05:19:45.129Z,3.10
2023-03-31T05:22:12.086Z,3.17
2023-03-31T05:24:39.306Z,3.45
2023-03-31T05:27:07.799Z,2.85
2023-03-31T05:29:35.167Z,3.55
2023-03-31T05:32:02.269Z,4.60
2023-03-31T05:34:30.095Z,3.55
2023-03-31T05:36:57.875Z,3.83
2023-03-31T05:39:25.237Z,5.37
2023-03-31T05:41:52.256Z,3.65
2023-03-31T05:44:21.227Z,5.75
2023-03-31T05:46:48.330Z,2.90
2023-03-31T05:49:17.032Z,3.28
2023-03-31T05:51:43.976Z,3.25
2023-03-31T05:54:11.465Z,3.10
2023-03-31T05:56:38.635Z,3.42
2023-03-31T05:59:06.380Z,3.28
2023-03-31T06:01:34.956Z,3.13
2023-03-31T06:04:02.945Z,2.50
2023-03-31T06:06:30.334Z,3.28
2023-03-31T06:08:57.726Z,2.88
2023-03-31T06:11:24.790Z,2.75
2023-03-31T06:13:52.047Z,2.90
2023-03-31T06:16:19.837Z,3.10
2023-03-31T06:18:48.728Z,3.70
2023-03-31T06:21:18.533Z,3.38
2023-03-31T06:23:46.202Z,2.83
2023-03-31T06:26:14.547Z,2.55
2023-03-31T06:28:41.958Z,3.40
2023-03-31T06:31:12.631Z,2.90
2023-03-31T06:33:41.792Z,3.08
2023-03-31T06:36:13.112Z,3.17
2023-03-31T06:38:40.657Z,3.10
2023-03-31T06:41:09.559Z,2.88
2023-03-31T06:43:37.096Z,3.28
2023-03-31T06:46:05.084Z,3.13
2023-03-31T06:48:32.549Z,3.35
2023-03-31T06:51:00.626Z,3.33
2023-03-31T06:53:29.486Z,3.25
2023-03-31T06:55:57.001Z,2.85
2023-03-31T06:58:24.236Z,3.20
2023-03-31T07:00:51.562Z,2.67
2023-03-31T07:03:22.391Z,2.70
2023-03-31T07:05:50.305Z,2.30
2023-03-31T07:08:18.411Z,2.80
2023-03-31T07:10:49.306Z,2.80
2023-03-31T07:13:17.856Z,3.03
2023-03-31T07:15:47.888Z,2.97
2023-03-31T07:18:15.987Z,2.72
2023-03-31T07:20:43.841Z,2.88
2023-03-31T07:23:11.458Z,2.60
2023-03-31T07:25:38.492Z,2.35
2023-03-31T07:28:07.213Z,2.67
2023-03-31T07:30:34.406Z,2.60
2023-03-31T07:33:01.731Z,2.35
2023-03-31T07:35:31.061Z,2.95
2023-03-31T07:37:59.132Z,2.20
2023-03-31T07:40:29.242Z,2.55
2023-03-31T07:42:57.120Z,1.90
2023-03-31T07:45:27.039Z,2.20
2023-03-31T07:47:54.648Z,2.13
2023-03-31T07:50:22.797Z,2.20
2023-03-31T07:52:50.690Z,2.35
2023-03-31T07:55:19.868Z,2.13
2023-03-31T07:57:47.814Z,2.13
2023-03-31T08:00:16.033Z,3.15
2023-03-31T08:02:44.871Z,2.33
2023-03-31T08:05:16.456Z,2.25
2023-03-31T08:07:45.932Z,2.55
2023-03-31T08:10:16.274Z,2.60
2023-03-31T08:12:43.888Z,2.13
2023-03-31T08:15:11.526Z,2.70
2023-03-31T08:17:39.274Z,1.90
2023-03-31T08:20:10.404Z,2.72
2023-03-31T08:22:38.666Z,2.70
2023-03-31T08:25:08.352Z,2.72
2023-03-31T08:27:37.169Z,2.30
2023-03-31T08:30:05.191Z,2.72
2023-03-31T08:32:33.503Z,2.70
2023-03-31T08:35:00.839Z,2.33
2023-03-31T08:37:29.584Z,2.38
2023-03-31T08:39:56.634Z,2.10
2023-03-31T08:42:33.768Z,2.50
2023-03-31T08:45:04.737Z,2.55
2023-03-31T08:47:35.008Z,2.50
2023-03-31T08:50:07.433Z,2.17
2023-03-31T08:52:41.660Z,2.60
2023-03-31T08:55:13.788Z,2.50
2023-03-31T08:57:52.396Z,2.58
2023-03-31T09:00:20.360Z,2.35
2023-03-31T09:02:55.628Z,2.47
2023-03-31T09:05:53.081Z,2.15
2023-03-31T09:08:36.205Z,2.25
2023-03-31T09:11:11.958Z,2.03
2023-03-31T09:13:53.783Z,2.47
2023-03-31T09:16:26.718Z,2.33
2023-03-31T09:18:57.144Z,2.45
2023-03-31T09:21:30.668Z,2.22
2023-03-31T09:24:05.441Z,1.85
2023-03-31T09:26:38.452Z,2.28
2023-03-31T09:29:14.469Z,2.38
2023-03-31T09:31:44.687Z,2.35
2023-03-31T09:34:15.660Z,1.90
2023-03-31T09:36:43.252Z,2.05
2023-03-31T09:39:15.000Z,2.30
2023-03-31T09:41:45.660Z,2.00
2023-03-31T09:44:36.580Z,1.88
2023-03-31T09:47:10.920Z,1.80
2023-03-31T09:49:39.754Z,2.25
2023-03-31T09:52:16.106Z,1.73
2023-03-31T09:54:50.024Z,1.90
2023-03-31T09:57:26.438Z,2.10
2023-03-31T09:59:54.174Z,1.98
2023-03-31T10:02:30.434Z,2.10
2023-03-31T10:04:57.826Z,2.00
2023-03-31T10:07:26.289Z,1.58
2023-03-31T10:14:53.468Z,1.40
2023-03-31T10:17:22.770Z,1.50
2023-03-31T10:19:52.747Z,1.58
2023-03-31T10:22:28.409Z,2.05
2023-03-31T10:25:10.660Z,1.65
2023-03-31T10:27:42.164Z,1.95
2023-03-31T10:30:12.605Z,3.08
2023-03-31T10:32:43.202Z,1.65
2023-03-31T10:35:23.113Z,1.85
2023-03-31T10:37:54.515Z,1.80
2023-03-31T10:40:26.129Z,1.63
2023-03-31T10:43:01.788Z,1.73
2023-03-31T10:45:37.450Z,1.75
2023-03-31T10:48:16.918Z,1.83
2023-03-31T10:50:44.314Z,3.58
2023-03-31T10:53:14.193Z,1.80
2023-03-31T10:55:54.125Z,1.75
2023-03-31T10:58:34.417Z,2.67
2023-03-31T11:01:17.077Z,1.80
2023-03-31T11:03:59.320Z,2.20
2023-03-31T11:06:34.054Z,2.08
2023-03-31T11:09:14.708Z,2.17
2023-03-31T11:12:02.108Z,1.95
2023-03-31T11:14:40.492Z,2.20
2023-03-31T11:19:50.516Z,1.73
2023-03-31T11:22:26.292Z,1.30
2023-03-31T11:25:18.942Z,1.60
2023-03-31T11:28:17.587Z,1.50
2023-03-31T11:30:51.245Z,1.80
2023-03-31T11:33:44.543Z,1.85
2023-03-31T11:36:36.869Z,1.60
2023-03-31T11:39:22.135Z,1.40
2023-03-31T11:41:52.284Z,1.80
2023-03-31T11:44:24.477Z,1.90
2023-03-31T11:46:56.090Z,1.75
2023-03-31T11:49:27.240Z,1.80
2023-03-31T11:51:57.056Z,1.67
2023-03-31T11:54:31.489Z,1.35
2023-03-31T11:57:02.321Z,2.00
2023-03-31T11:59:32.907Z,1.55
2023-03-31T12:02:11.285Z,1.60
2023-03-31T12:04:42.896Z,1.85
2023-03-31T12:07:24.256Z,1.73
2023-03-31T12:10:05.419Z,1.40
2023-03-31T12:12:35.940Z,1.90
2023-03-31T12:15:14.080Z,1.65
2023-03-31T12:17:43.640Z,1.45
2023-03-31T12:20:17.932Z,1.95
2023-03-31T12:22:48.491Z,1.52
2023-03-31T12:25:22.881Z,1.60
2023-03-31T12:27:51.702Z,1.38
2023-03-31T12:30:28.546Z,1.40
2023-03-31T12:33:01.190Z,1.40
2023-03-31T12:35:39.022Z,1.60
2023-03-31T12:38:17.553Z,1.77
2023-03-31T12:40:58.851Z,1.55
2023-03-31T12:43:49.083Z,1.70
2023-03-31T12:46:29.635Z,1.30
2023-03-31T12:49:11.445Z,1.55
2023-03-31T12:52:01.027Z,1.50
2023-03-31T12:55:09.573Z,1.60
2023-03-31T12:57:38.356Z,2.08
2023-03-31T13:00:24.149Z,1.38
2023-03-31T13:03:34.146Z,1.40
2023-03-31T13:06:03.041Z,1.45
2023-03-31T13:08:52.196Z,1.33
2023-03-31T13:11:20.987Z,1.92
2023-03-31T13:16:48.080Z,1.50
2023-03-31T13:19:28.191Z,1.55
2023-03-31T13:21:58.181Z,1.48
2023-03-31T13:24:27.415Z,1.58
2023-03-31T13:26:59.369Z,1.90
2023-03-31T13:29:40.504Z,1.63
2023-03-31T13:32:23.062Z,1.35
2023-03-31T13:34:58.794Z,1.30
2023-03-31T13:37:45.106Z,1.40
2023-03-31T13:40:33.748Z,2.03
2023-03-31T13:43:34.242Z,2.40
2023-03-31T13:46:23.519Z,1.30
2023-03-31T13:49:01.446Z,1.40
2023-03-31T13:51:55.347Z,1.45
2023-03-31T13:54:55.007Z,1.52
2023-03-31T13:58:24.945Z,1.48
2023-03-31T14:01:25.632Z,1.33
2023-03-31T14:04:04.768Z,1.60
2023-03-31T14:06:38.107Z,1.45
2023-03-31T14:09:08.093Z,1.92
2023-03-31T14:11:36.606Z,1.80
2023-03-31T14:14:07.670Z,1.73
2023-03-31T14:16:39.270Z,1.60
2023-03-31T14:19:29.112Z,1.60
2023-03-31T14:22:03.444Z,2.10
2023-03-31T14:24:38.027Z,1.50
2023-03-31T14:27:18.658Z,1.70
2023-03-31T14:29:57.861Z,1.60
2023-03-31T14:32:37.138Z,1.98
2023-03-31T14:35:26.674Z,2.10
2023-03-31T14:37:55.254Z,2.00
2023-03-31T14:40:23.211Z,1.70
2023-03-31T14:42:51.649Z,2.67
2023-03-31T14:45:22.150Z,1.77
2023-03-31T14:47:57.285Z,1.50
2023-03-31T14:50:31.325Z,2.10
2023-03-31T14:52:59.640Z,1.77
2023-03-31T14:58:21.486Z,1.50
2023-03-31T15:00:49.036Z,1.67
2023-03-31T15:03:17.673Z,2.03
2023-03-31T15:05:48.850Z,1.45
2023-03-31T15:08:19.724Z,1.40
2023-03-31T15:10:54.013Z,1.50
2023-03-31T15:13:33.790Z,1.65
2023-03-31T15:16:18.985Z,1.77
2023-03-31T15:18:51.766Z,2.00
2023-03-31T15:21:21.654Z,1.75
2023-03-31T15:23:53.066Z,1.77
2023-03-31T15:26:34.392Z,1.63
2023-03-31T15:29:11.861Z,1.52
2023-03-31T15:31:41.148Z,1.50
2023-03-31T15:34:27.963Z,2.30
2023-03-31T15:36:57.238Z,1.40
2023-03-31T15:42:01.168Z,2.05
2023-03-31T15:44:38.014Z,2.20
2023-03-31T15:47:16.194Z,1.35
2023-03-31T15:49:54.900Z,1.30
2023-03-31T15:52:27.675Z,2.30
2023-03-31T15:54:55.030Z,1.80
2023-03-31T15:57:32.028Z,5.35
2023-03-31T16:00:00.894Z,5.57
2023-03-31T16:02:39.854Z,2.63
2023-03-31T16:07:48.066Z,2.17
2023-03-31T16:10:19.253Z,5.32
2023-03-31T16:12:53.847Z,3.63
2023-03-31T16:15:31.506Z,3.78
2023-03-31T16:18:02.763Z,3.42
2023-03-31T16:20:33.386Z,2.33
2023-03-31T16:23:01.182Z,3.72
2023-03-31T16:25:31.429Z,3.35
2023-03-31T16:28:01.191Z,5.97
2023-03-31T16:30:37.266Z,3.38
2023-03-31T16:33:07.108Z,2.80
2023-03-31T16:35:39.741Z,2.53
2023-03-31T16:38:08.800Z,3.40
2023-03-31T16:40:38.984Z,5.53
2023-03-31T16:43:12.077Z,4.38
2023-03-31T16:45:58.001Z,3.67
2023-03-31T16:48:27.348Z,4.63
2023-03-31T16:50:56.411Z,4.70
2023-03-31T16:53:31.511Z,3.80
2023-03-31T16:56:00.995Z,3.28
2023-03-31T16:58:29.500Z,3.22
2023-03-31T17:00:58.097Z,2.83
2023-03-31T17:03:26.122Z,3.15
2023-03-31T17:05:56.856Z,2.58
2023-03-31T17:08:27.978Z,2.50
2023-03-31T17:11:02.130Z,2.40
2023-03-31T17:13:30.858Z,2.80
2023-03-31T17:18:49.664Z,2.55
2023-03-31T17:21:19.961Z,2.30
2023-03-31T17:23:49.763Z,2.92
2023-03-31T17:26:20.727Z,2.67
2023-03-31T17:28:48.107Z,2.40
2023-03-31T17:31:18.242Z,2.60
2023-03-31T17:33:46.347Z,2.70
2023-03-31T17:36:13.759Z,2.60
2023-03-31T17:38:42.030Z,2.60
2023-03-31T17:41:11.450Z,2.90
2023-03-31T17:43:39.083Z,2.60
2023-03-31T17:46:12.918Z,2.40
2023-03-31T17:48:43.270Z,2.60
2023-03-31T17:51:13.853Z,2.78
2023-03-31T17:53:41.950Z,2.67
2023-03-31T17:56:09.116Z,2.70
2023-03-31T17:58:36.265Z,2.67
2023-03-31T18:01:04.948Z,3.05
2023-03-31T18:03:32.507Z,2.90
2023-03-31T18:06:05.029Z,2.53
2023-03-31T18:08:33.149Z,3.10
2023-03-31T18:11:01.040Z,3.35
2023-03-31T18:13:29.123Z,3.00
2023-03-31T18:15:56.711Z,3.08
2023-03-31T18:18:26.720Z,2.90
2023-03-31T18:20:53.909Z,3.20
2023-03-31T18:23:23.906Z,3.20
2023-03-31T18:25:51.710Z,2.83
2023-03-31T18:28:22.190Z,3.15
2023-03-31T18:30:49.315Z,3.15
2023-03-31T18:33:16.738Z,2.85
2023-03-31T18:35:44.493Z,2.92
2023-03-31T18:38:12.123Z,3.40
2023-03-31T18:40:47.930Z,3.10
2023-03-31T18:43:15.278Z,2.90
2023-03-31T18:45:45.292Z,2.88
2023-03-31T18:48:12.792Z,2.97
2023-03-31T18:50:39.811Z,2.97
2023-03-31T18:53:07.469Z,2.45
2023-03-31T18:55:34.646Z,2.90
2023-03-31T18:58:03.722Z,2.92
2023-03-31T19:00:30.925Z,3.05
2023-03-31T19:02:58.572Z,3.00
2023-03-31T19:05:25.712Z,2.72
2023-03-31T19:07:53.130Z,3.65
2023-03-31T19:10:20.177Z,3.63
2023-03-31T19:12:48.643Z,3.75
2023-03-31T19:15:17.539Z,3.60
2023-03-31T19:17:45.197Z,3.75
2023-03-31T19:20:18.497Z,3.85
2023-03-31T19:22:49.299Z,4.03
2023-03-31T19:25:17.691Z,3.72
2023-03-31T19:30:18.277Z,3.55
2023-03-31T19:32:47.680Z,3.47
2023-03-31T19:35:21.248Z,4.28
2023-03-31T19:37:48.904Z,4.35
2023-03-31T19:40:16.086Z,4.07
2023-03-31T19:42:44.447Z,3.88
2023-03-31T19:45:11.721Z,3.80
2023-03-31T19:47:40.725Z,4.10
2023-03-31T19:50:08.756Z,3.78
2023-03-31T19:52:36.651Z,3.70
2023-03-31T19:55:07.224Z,3.53
2023-03-31T19:57:34.090Z,3.30
2023-03-31T20:00:04.002Z,3.80
2023-03-31T20:02:32.412Z,2.92
2023-03-31T20:05:01.806Z,3.60
2023-03-31T20:07:30.199Z,3.42
2023-03-31T20:09:57.509Z,3.38
2023-03-31T20:12:24.504Z,3.67
2023-03-31T20:14:51.845Z,3.42
2023-03-31T20:17:20.616Z,2.85
2023-03-31T20:19:48.020Z,3.40
2023-03-31T20:22:16.793Z,3.58
2023-03-31T20:24:44.169Z,3.05
2023-03-31T20:27:11.203Z,3.30
2023-03-31T20:29:38.724Z,3.25
2023-03-31T20:32:05.952Z,3.20
2023-03-31T20:34:34.068Z,3.75
2023-03-31T20:37:02.318Z,3.33
2023-03-31T20:39:31.179Z,2.63
2023-03-31T20:41:58.152Z,3.15
2023-03-31T20:44:25.613Z,3.13
2023-03-31T20:46:52.765Z,3.30
2023-03-31T20:49:20.074Z,3.30
2023-03-31T20:51:49.103Z,3.88
2023-03-31T20:54:17.018Z,3.35
2023-03-31T20:56:45.583Z,4.55
2023-03-31T21:01:42.489Z,4.28
2023-03-31T21:04:11.307Z,4.47
2023-03-31T21:06:40.377Z,4.97
2023-03-31T21:09:08.788Z,4.53
2023-03-31T21:11:35.833Z,5.13
2023-03-31T21:14:05.790Z,4.70
2023-03-31T21:16:33.666Z,4.75
2023-03-31T21:19:01.201Z,4.40
2023-03-31T21:21:29.015Z,4.20
2023-03-31T21:23:56.492Z,4.60
2023-03-31T21:26:25.034Z,4.45
2023-03-31T21:28:56.215Z,4.65
2023-03-31T21:31:26.114Z,4.90
2023-03-31T21:33:57.538Z,4.13
2023-03-31T21:36:25.772Z,4.60
2023-03-31T21:38:54.285Z,4.32
2023-03-31T21:41:24.208Z,4.85
2023-03-31T21:43:52.299Z,4.65
2023-03-31T21:46:21.134Z,4.63
2023-03-31T21:48:50.425Z,4.35
2023-03-31T21:51:18.366Z,4.10
2023-03-31T21:53:46.066Z,4.70
2023-03-31T21:56:13.189Z,4.65
2023-03-31T21:58:40.597Z,4.80
2023-03-31T22:01:08.612Z,4.30
2023-03-31T22:03:36.764Z,4.57
2023-03-31T22:06:09.522Z,4.63
2023-03-31T22:08:38.119Z,4.53
2023-03-31T22:11:06.881Z,4.18
2023-03-31T22:13:35.324Z,4.55
2023-03-31T22:16:02.647Z,4.43
2023-03-31T22:18:30.954Z,4.30
2023-03-31T22:20:58.250Z,4.03
2023-03-31T22:23:27.768Z,4.63
2023-03-31T22:25:55.040Z,4.15
2023-03-31T22:28:22.252Z,4.40
2023-03-31T22:30:49.382Z,4.28
2023-03-31T22:33:16.759Z,4.70
2023-03-31T22:35:43.868Z,4.43
2023-03-31T22:38:12.755Z,4.63
2023-03-31T22:40:41.406Z,4.55
2023-03-31T22:45:36.510Z,4.90
2023-03-31T22:48:05.051Z,4.50
2023-03-31T22:50:32.752Z,5.00
2023-03-31T22:52:59.977Z,4.68
2023-03-31T22:55:27.327Z,5.00
2023-03-31T22:57:55.979Z,4.55
2023-03-31T23:00:23.013Z,4.97
2023-03-31T23:02:50.740Z,4.35
2023-03-31T23:05:17.938Z,4.65
2023-03-31T23:07:45.395Z,4.65
2023-03-31T23:10:12.477Z,3.72
2023-03-31T23:12:39.986Z,3.97
2023-03-31T23:15:09.035Z,4.05
2023-03-31T23:17:36.649Z,3.35
2023-03-31T23:20:04.760Z,3.50
2023-03-31T23:22:32.050Z,3.20
2023-03-31T23:24:58.977Z,3.78
2023-03-31T23:27:26.243Z,3.55
2023-03-31T23:29:53.158Z,3.40
2023-03-31T23:32:21.977Z,3.60
2023-03-31T23:34:48.992Z,3.80
2023-03-31T23:37:16.550Z,3.35
2023-03-31T23:39:43.633Z,3.85
2023-03-31T23:42:13.766Z,3.38
2023-03-31T23:44:40.849Z,3.33
2023-03-31T23:47:08.117Z,3.80
2023-03-31T23:49:36.716Z,3.60
2023-03-31T23:52:04.731Z,4.07
2023-03-31T23:54:31.737Z,5.10
2023-03-31T23:56:58.927Z,4.60
2023-03-31T23:59:25.955Z,4.63
